createdAt,value
2023-12-14T00:01:47.663Z,93249.36
2023-12-14T00:04:15.872Z,93239.73
2023-12-14T00:06:43.966Z,93246.36
2023-12-14T00:09:11.969Z,93247.77
2023-12-14T00:11:40.534Z,93253.88
2023-12-14T00:14:09.597Z,93251.46
2023-12-14T00:16:37.811Z,93248.85
2023-12-14T00:19:06.076Z,93254.48
2023-12-14T00:21:34.208Z,93244.61
2023-12-14T00:24:02.304Z,93234.41
2023-12-14T00:26:30.445Z,93234.48
2023-12-14T00:29:01.673Z,93237.32
2023-12-14T00:31:30.557Z,93236.73
2023-12-14T00:33:59.048Z,93228.37
2023-12-14T00:36:27.238Z,93219.45
2023-12-14T00:38:56.729Z,93229.55
2023-12-14T00:41:24.871Z,93232.83
2023-12-14T00:43:52.963Z,93225.40
2023-12-14T00:46:21.025Z,93226.30
2023-12-14T00:48:49.354Z,93231.35
2023-12-14T00:51:17.527Z,93222.16
2023-12-14T00:53:45.955Z,93213.37
2023-12-14T00:56:14.210Z,93214.20
2023-12-14T00:58:42.524Z,93214.69
2023-12-14T01:01:10.725Z,93220.33
2023-12-14T01:03:38.766Z,93224.40
2023-12-14T01:06:08.341Z,93222.13
2023-12-14T01:08:36.585Z,93219.86
2023-12-14T01:11:04.923Z,93213.61
2023-12-14T01:13:33.025Z,93213.65
2023-12-14T01:16:01.045Z,93223.82
2023-12-14T01:18:29.335Z,93225.29
2023-12-14T01:20:57.468Z,93225.36
2023-12-14T01:23:25.453Z,93222.70
2023-12-14T01:25:53.572Z,93218.30
2023-12-14T01:28:21.593Z,93217.50
2023-12-14T01:30:49.940Z,93211.30
2023-12-14T01:33:18.714Z,93211.54
2023-12-14T01:35:46.885Z,93192.23
2023-12-14T01:38:15.158Z,93184.44
2023-12-14T01:40:43.451Z,93174.12
2023-12-14T01:43:11.898Z,93186.42
2023-12-14T01:45:40.372Z,93181.83
2023-12-14T01:48:08.855Z,93174.52
2023-12-14T01:50:36.956Z,93146.38
2023-12-14T01:53:05.257Z,93158.45
2023-12-14T01:55:33.491Z,93155.14
2023-12-14T01:58:01.961Z,93149.52
2023-12-14T02:01:10.635Z,93160.52
2023-12-14T02:03:49.925Z,93149.55
2023-12-14T02:06:18.166Z,93144.04
2023-12-14T02:08:47.378Z,93146.55
2023-12-14T02:11:15.747Z,93140.13
2023-12-14T02:13:44.243Z,93154.80
2023-12-14T02:16:12.302Z,93152.08
2023-12-14T02:18:40.546Z,93153.71
2023-12-14T02:21:08.588Z,93151.95
2023-12-14T02:23:36.814Z,93157.66
2023-12-14T02:26:04.862Z,93168.09
2023-12-14T02:28:32.893Z,93167.00
2023-12-14T02:31:01.072Z,93168.95
2023-12-14T02:33:29.240Z,93179.95
2023-12-14T02:35:57.304Z,93184.67
2023-12-14T02:38:25.424Z,93201.98
2023-12-14T02:40:54.041Z,93200.77
2023-12-14T02:43:22.221Z,93197.73
2023-12-14T02:45:50.910Z,93190.85
2023-12-14T02:48:18.954Z,93204.62
2023-12-14T02:50:47.502Z,93202.82
2023-12-14T02:53:15.546Z,93213.21
2023-12-14T02:55:44.422Z,93227.23
2023-12-14T02:58:12.535Z,93229.16
2023-12-14T03:00:40.802Z,93235.38
2023-12-14T03:03:08.954Z,93244.25
2023-12-14T03:05:37.741Z,93249.63
2023-12-14T03:08:05.999Z,93253.77
2023-12-14T03:10:34.141Z,93266.79
2023-12-14T03:13:02.372Z,93270.38
2023-12-14T03:15:30.669Z,93277.67
2023-12-14T03:17:58.858Z,93286.85
2023-12-14T03:20:27.229Z,93308.16
2023-12-14T03:22:55.484Z,93321.14
2023-12-14T03:25:23.672Z,93339.57
2023-12-14T03:27:51.738Z,93348.77
2023-12-14T03:30:19.917Z,93366.90
2023-12-14T03:32:48.049Z,93382.12
2023-12-14T03:35:16.249Z,93383.79
2023-12-14T03:37:44.455Z,93387.58
2023-12-14T03:40:12.546Z,93377.33
2023-12-14T03:42:41.106Z,93387.94
2023-12-14T03:45:09.501Z,93400.73
2023-12-14T03:47:37.686Z,93396.29
2023-12-14T03:50:06.515Z,93385.12
2023-12-14T03:52:35.283Z,93385.56
2023-12-14T03:55:03.805Z,93358.47
2023-12-14T03:57:31.993Z,93371.98
2023-12-14T04:00:00.070Z,93383.13
2023-12-14T04:02:28.301Z,93386.88
2023-12-14T04:04:56.459Z,93392.44
2023-12-14T04:07:25.060Z,93391.21
2023-12-14T04:09:53.154Z,93390.50
2023-12-14T04:12:21.412Z,93402.62
2023-12-14T04:14:49.487Z,93413.66
2023-12-14T04:17:17.787Z,93406.55
2023-12-14T04:19:45.906Z,93407.34
2023-12-14T04:22:14.069Z,93405.96
2023-12-14T04:24:42.226Z,93393.74
2023-12-14T04:27:10.283Z,93396.44
2023-12-14T04:29:38.334Z,93406.67
2023-12-14T04:32:06.787Z,93405.55
2023-12-14T04:34:34.930Z,93408.73
2023-12-14T04:37:03.229Z,93414.25
2023-12-14T04:39:31.636Z,93406.73
2023-12-14T04:41:59.851Z,93399.64
2023-12-14T04:44:28.054Z,93392.02
2023-12-14T04:46:56.141Z,93382.81
2023-12-14T04:49:24.288Z,93390.71
2023-12-14T04:51:52.308Z,93394.73
2023-12-14T04:54:21.554Z,93405.52
2023-12-14T04:56:49.849Z,93409.42
2023-12-14T04:59:18.467Z,93404.91
2023-12-14T05:01:46.712Z,93403.81
2023-12-14T05:04:14.891Z,93390.67
2023-12-14T05:06:43.095Z,93389.02
2023-12-14T05:09:12.711Z,93392.55
2023-12-14T05:11:41.565Z,93383.05
2023-12-14T05:14:09.862Z,93374.77
2023-12-14T05:16:38.169Z,93373.55
2023-12-14T05:19:06.456Z,93377.95
2023-12-14T05:21:34.529Z,93380.33
2023-12-14T05:24:02.596Z,93381.30
2023-12-14T05:26:36.563Z,93392.29
2023-12-14T05:29:04.781Z,93390.62
2023-12-14T05:31:32.890Z,93399.31
2023-12-14T05:34:01.007Z,93411.02
2023-12-14T05:36:29.238Z,93405.77
2023-12-14T05:38:58.967Z,93401.70
2023-12-14T05:41:27.731Z,93400.71
2023-12-14T05:43:55.866Z,93391.01
2023-12-14T05:46:24.545Z,93381.36
2023-12-14T05:48:53.368Z,93387.91
2023-12-14T05:51:29.391Z,93391.77
2023-12-14T05:53:58.497Z,93388.97
2023-12-14T05:56:27.123Z,93393.23
2023-12-14T05:58:57.527Z,93393.13
2023-12-14T06:01:26.796Z,93385.95
2023-12-14T06:03:55.189Z,93388.73
2023-12-14T06:06:25.001Z,93395.01
2023-12-14T06:08:58.825Z,93392.27
2023-12-14T06:11:30.105Z,93385.00
2023-12-14T06:14:01.120Z,93397.34
2023-12-14T06:16:32.007Z,93398.48
2023-12-14T06:19:03.357Z,93397.84
2023-12-14T06:21:35.314Z,93398.65
2023-12-14T06:24:04.775Z,93394.92
2023-12-14T06:26:33.047Z,93405.80
2023-12-14T06:29:08.365Z,93415.13
2023-12-14T06:31:40.209Z,93411.83
2023-12-14T06:34:08.623Z,93413.89
2023-12-14T06:36:50.501Z,93412.60
2023-12-14T06:39:22.368Z,93409.27
2023-12-14T06:41:53.234Z,93411.45
2023-12-14T06:44:23.400Z,93411.09
2023-12-14T06:47:00.713Z,93414.16
2023-12-14T06:49:30.044Z,93414.31
2023-12-14T06:51:59.391Z,93415.20
2023-12-14T06:55:10.926Z,93417.54
2023-12-14T07:00:56.401Z,93417.48
2023-12-14T07:04:17.632Z,93419.82
2023-12-14T07:07:10.242Z,93442.34
2023-12-14T07:10:12.521Z,93440.40
2023-12-14T07:12:45.742Z,93445.52
2023-12-14T07:15:15.192Z,93446.89
2023-12-14T07:17:49.937Z,93448.11
2023-12-14T07:20:26.055Z,93446.44
2023-12-14T07:23:06.957Z,93446.07
2023-12-14T07:25:42.768Z,93447.11
2023-12-14T07:28:42.767Z,93438.81
2023-12-14T07:31:34.003Z,93431.88
2023-12-14T07:35:47.696Z,93430.25
2023-12-14T07:37:48.055Z,93449.94
2023-12-14T07:40:58.164Z,93472.35
2023-12-14T07:44:02.843Z,93480.94
2023-12-14T07:47:18.383Z,93479.34
2023-12-14T07:50:24.982Z,93480.98
2023-12-14T07:53:05.890Z,93489.96
2023-12-14T07:55:57.987Z,93503.03
2023-12-14T07:58:40.584Z,93530.59
2023-12-14T08:01:08.849Z,93528.15
2023-12-14T08:03:49.717Z,93514.94
2023-12-14T08:15:29.667Z,93508.02
2023-12-14T08:18:25.878Z,93526.95
2023-12-14T08:23:03.081Z,93548.21
2023-12-14T08:26:26.350Z,93552.36
2023-12-14T08:29:28.447Z,93538.16
2023-12-14T08:32:40.085Z,93539.10
2023-12-14T08:35:42.075Z,93554.18
2023-12-14T08:38:34.092Z,93568.47
2023-12-14T08:41:29.053Z,93573.85
2023-12-14T08:44:23.982Z,93560.20
2023-12-14T08:47:25.305Z,93560.87
2023-12-14T08:57:22.514Z,93543.03
2023-12-14T09:05:42.365Z,93576.63
2023-12-14T09:19:04.127Z,93585.36
2023-12-14T09:27:43.472Z,93603.11
2023-12-14T09:30:14.524Z,93591.27
2023-12-14T09:32:54.751Z,93584.55
2023-12-14T09:35:25.110Z,93583.02
2023-12-14T09:38:10.885Z,93608.84
2023-12-14T09:41:03.337Z,93622.73
2023-12-14T09:43:55.470Z,93612.70
2023-12-14T09:46:54.840Z,93601.23
2023-12-14T09:49:36.861Z,93584.73
2023-12-14T09:52:54.276Z,93597.11
2023-12-14T09:56:28.109Z,93597.47
2023-12-14T10:07:16.140Z,93591.30
2023-12-14T10:10:36.696Z,93616.73
2023-12-14T10:13:56.293Z,93621.23
2023-12-14T10:16:34.771Z,93617.77
2023-12-14T10:19:04.649Z,93612.36
2023-12-14T10:21:36.306Z,93620.79
2023-12-14T10:24:07.382Z,93633.02
2023-12-14T10:26:41.978Z,93638.00
2023-12-14T10:29:13.094Z,93636.21
2023-12-14T10:31:45.990Z,93643.65
2023-12-14T10:34:16.717Z,93651.10
2023-12-14T10:36:50.524Z,93646.33
2023-12-14T10:39:23.584Z,93628.70
2023-12-14T10:42:08.106Z,93633.17
2023-12-14T10:45:11.858Z,93649.55
2023-12-14T10:47:50.007Z,93649.83
2023-12-14T10:50:22.779Z,93651.98
2023-12-14T10:52:57.884Z,93649.94
2023-12-14T10:55:47.191Z,93646.05
2023-12-14T10:58:23.801Z,93654.42
2023-12-14T11:01:03.203Z,93647.85
2023-12-14T11:03:44.181Z,93650.95
2023-12-14T11:07:27.529Z,93648.73
2023-12-14T11:10:51.833Z,93648.33
2023-12-14T11:13:45.323Z,93657.08
2023-12-14T11:20:06.299Z,93666.23
2023-12-14T11:22:47.000Z,93662.20
2023-12-14T11:26:31.332Z,93656.19
2023-12-14T11:32:26.839Z,93672.00
2023-12-14T11:35:45.047Z,93684.42
2023-12-14T11:41:11.999Z,93723.67
2023-12-14T11:43:43.517Z,93726.20
2023-12-14T11:46:13.006Z,93726.56
2023-12-14T11:48:50.278Z,93723.42
2023-12-14T11:51:20.069Z,93712.31
2023-12-14T11:53:50.945Z,93714.49
2023-12-14T11:56:22.501Z,93714.34
2023-12-14T11:58:51.317Z,93713.20
2023-12-14T12:01:22.547Z,93726.13
2023-12-14T12:03:51.820Z,93735.99
2023-12-14T12:06:24.752Z,93736.58
2023-12-14T12:08:55.739Z,93742.92
2023-12-14T12:11:32.277Z,93749.04
2023-12-14T12:14:11.859Z,93747.51
2023-12-14T12:16:40.742Z,93748.17
2023-12-14T12:19:08.843Z,93750.35
2023-12-14T12:21:41.183Z,93747.45
2023-12-14T12:24:22.614Z,93755.92
2023-12-14T12:26:57.914Z,93753.48
2023-12-14T12:29:35.120Z,93761.59
2023-12-14T12:32:08.834Z,93767.67
2023-12-14T12:34:49.020Z,93766.14
2023-12-14T12:37:19.114Z,93767.47
2023-12-14T12:39:48.218Z,93770.56
2023-12-14T12:42:16.318Z,93762.92
2023-12-14T12:44:44.523Z,93759.67
2023-12-14T12:47:12.660Z,93758.29
2023-12-14T12:49:42.101Z,93754.77
2023-12-14T12:52:10.674Z,93746.36
2023-12-14T12:54:38.984Z,93738.36
2023-12-14T12:57:07.957Z,93734.06
2023-12-14T12:59:38.392Z,93726.29
2023-12-14T13:02:08.142Z,93735.83
2023-12-14T13:04:40.670Z,93738.71
2023-12-14T13:07:08.961Z,93752.24
2023-12-14T13:09:38.547Z,93766.65
2023-12-14T13:12:07.165Z,93775.80
2023-12-14T13:14:38.225Z,93778.02
2023-12-14T13:17:24.956Z,93779.83
2023-12-14T13:19:57.486Z,93790.42
2023-12-14T13:22:27.467Z,93794.29
2023-12-14T13:25:01.202Z,93801.63
2023-12-14T13:27:29.251Z,93805.96
2023-12-14T13:29:58.029Z,93815.36
2023-12-14T13:32:26.180Z,93822.07
2023-12-14T13:34:54.451Z,93823.09
2023-12-14T13:37:22.678Z,93820.98
2023-12-14T13:39:51.401Z,93828.41
2023-12-14T13:42:22.492Z,93843.18
2023-12-14T13:44:53.742Z,93855.10
2023-12-14T13:47:22.859Z,93855.66
2023-12-14T13:49:51.625Z,93850.96
2023-12-14T13:52:19.945Z,93852.15
2023-12-14T13:54:48.238Z,93852.66
2023-12-14T13:57:16.453Z,93855.29
2023-12-14T13:59:44.699Z,93860.35
2023-12-14T14:02:12.935Z,93854.52
2023-12-14T14:04:42.105Z,93852.09
2023-12-14T14:07:10.225Z,93848.11
2023-12-14T14:09:39.082Z,93856.21
2023-12-14T14:12:07.569Z,93858.39
2023-12-14T14:14:35.790Z,93862.26
2023-12-14T14:17:03.940Z,93865.25
2023-12-14T14:19:32.361Z,93861.95
2023-12-14T14:22:00.499Z,93862.09
2023-12-14T14:24:28.737Z,93861.47
2023-12-14T14:26:57.109Z,93863.38
2023-12-14T14:29:25.743Z,93865.81
2023-12-14T14:31:54.084Z,93866.08
2023-12-14T14:34:25.453Z,93865.23
2023-12-14T14:36:53.792Z,93867.80
2023-12-14T14:39:22.266Z,93871.41
2023-12-14T14:41:50.451Z,93876.14
2023-12-14T14:44:18.939Z,93875.04
2023-12-14T14:50:05.802Z,93894.16
2023-12-14T14:52:35.523Z,93890.86
2023-12-14T14:55:07.220Z,93895.63
2023-12-14T14:57:35.344Z,93899.46
2023-12-14T15:00:04.653Z,93898.55
2023-12-14T15:02:33.535Z,93910.67
2023-12-14T15:05:03.126Z,93910.39
2023-12-14T15:07:31.984Z,93914.15
2023-12-14T15:10:00.111Z,93910.69
2023-12-14T15:12:28.355Z,93908.46
2023-12-14T15:14:57.861Z,93904.33
2023-12-14T15:17:26.201Z,93894.98
2023-12-14T15:19:54.601Z,93889.00
2023-12-14T15:22:22.669Z,93894.59
2023-12-14T15:24:50.812Z,93900.31
2023-12-14T15:27:19.056Z,93903.11
2023-12-14T15:29:47.207Z,93895.75
2023-12-14T15:32:16.002Z,93899.21
2023-12-14T15:34:44.315Z,93901.94
2023-12-14T15:37:12.566Z,93904.65
2023-12-14T15:39:40.659Z,93909.33
2023-12-14T15:42:08.864Z,93908.87
2023-12-14T15:44:37.036Z,93912.90
2023-12-14T15:47:05.373Z,93913.52
2023-12-14T15:49:33.461Z,93913.23
2023-12-14T15:52:01.489Z,93912.61
2023-12-14T15:54:29.522Z,93917.77
2023-12-14T15:56:59.663Z,93929.30
2023-12-14T15:59:28.535Z,93943.40
2023-12-14T16:01:56.688Z,93950.41
2023-12-14T16:04:24.841Z,93950.41
2023-12-14T16:06:52.976Z,93953.72
2023-12-14T16:09:21.062Z,93962.94
2023-12-14T16:11:49.233Z,93959.54
2023-12-14T16:14:17.783Z,93959.40
2023-12-14T16:16:45.862Z,93957.95
2023-12-14T16:19:14.242Z,93958.86
2023-12-14T16:21:42.483Z,93965.47
2023-12-14T16:24:10.480Z,93968.13
2023-12-14T16:26:42.768Z,93971.95
2023-12-14T16:29:10.942Z,93973.29
2023-12-14T16:31:43.408Z,93974.27
2023-12-14T16:34:11.998Z,93981.27
2023-12-14T16:36:40.322Z,93991.04
2023-12-14T16:39:11.170Z,94000.58
2023-12-14T16:41:39.356Z,94018.20
2023-12-14T16:44:07.536Z,94025.31
2023-12-14T16:46:35.553Z,94026.65
2023-12-14T16:49:03.668Z,94034.33
2023-12-14T16:51:31.899Z,94046.66
2023-12-14T16:54:01.517Z,94054.80
2023-12-14T16:56:32.639Z,94056.98
2023-12-14T16:59:01.129Z,94058.77
2023-12-14T17:01:29.475Z,94054.05
2023-12-14T17:03:58.157Z,94054.15
2023-12-14T17:06:26.291Z,94044.40
2023-12-14T17:08:54.417Z,94040.69
2023-12-14T17:11:22.826Z,94034.52
2023-12-14T17:13:51.003Z,94030.96
2023-12-14T17:16:21.125Z,94025.89
2023-12-14T17:18:49.503Z,94020.31
2023-12-14T17:21:24.809Z,94015.18
2023-12-14T17:23:54.457Z,94015.15
2023-12-14T17:26:26.705Z,94014.83
2023-12-14T17:28:57.342Z,94026.09
2023-12-14T17:31:26.576Z,94035.89
2023-12-14T17:33:55.233Z,94052.18
2023-12-14T17:36:23.457Z,94056.25
2023-12-14T17:38:53.022Z,94059.90
2023-12-14T17:41:22.224Z,94063.50
2023-12-14T17:43:53.202Z,94056.98
2023-12-14T17:46:23.071Z,94063.89
2023-12-14T17:48:51.399Z,94070.11
2023-12-14T17:51:19.539Z,94073.30
2023-12-14T17:53:47.592Z,94081.23
2023-12-14T17:56:17.101Z,94090.43
2023-12-14T17:58:46.659Z,94093.66
2023-12-14T18:01:15.508Z,94100.58
2023-12-14T18:03:43.734Z,94105.30
2023-12-14T18:06:11.747Z,94107.94
2023-12-14T18:08:39.911Z,94109.14
2023-12-14T18:11:07.949Z,94105.30
2023-12-14T18:13:36.116Z,94100.07
2023-12-14T18:16:04.587Z,94097.80
2023-12-14T18:18:32.736Z,94097.38
2023-12-14T18:21:00.919Z,94098.98
2023-12-14T18:23:29.028Z,94095.05
2023-12-14T18:25:57.117Z,94087.30
2023-12-14T18:28:27.761Z,94078.15
2023-12-14T18:30:55.853Z,94074.58
2023-12-14T18:33:24.055Z,94083.64
2023-12-14T18:35:52.150Z,94094.24
2023-12-14T18:38:20.550Z,94099.09
2023-12-14T18:40:48.953Z,94108.85
2023-12-14T18:43:17.387Z,94118.16
2023-12-14T18:45:45.718Z,94120.23
2023-12-14T18:48:14.057Z,94128.55
2023-12-14T18:50:42.657Z,94133.35
2023-12-14T18:53:11.927Z,94138.18
2023-12-14T18:55:40.351Z,94137.04
2023-12-14T18:58:08.761Z,94136.66
2023-12-14T19:00:37.895Z,94137.02
2023-12-14T19:03:08.114Z,94135.43
2023-12-14T19:05:37.603Z,94139.02
2023-12-14T19:08:05.982Z,94145.06
2023-12-14T19:10:34.422Z,94153.98
2023-12-14T19:13:04.242Z,94152.01
2023-12-14T19:15:32.553Z,94159.43
2023-12-14T19:18:01.606Z,94162.61
2023-12-14T19:20:30.005Z,94159.48
2023-12-14T19:23:00.088Z,94158.40
2023-12-14T19:25:28.149Z,94164.73
2023-12-14T19:27:56.268Z,94165.86
2023-12-14T19:30:24.346Z,94168.54
2023-12-14T19:32:53.785Z,94172.66
2023-12-14T19:35:22.305Z,94173.27
2023-12-14T19:37:50.939Z,94177.98
2023-12-14T19:40:19.311Z,94182.59
2023-12-14T19:42:47.495Z,94185.21
2023-12-14T19:45:15.789Z,94195.02
2023-12-14T19:47:44.584Z,94203.63
2023-12-14T19:50:13.604Z,94217.04
2023-12-14T20:01:26.876Z,94241.33
2023-12-14T20:03:40.042Z,94248.03
2023-12-14T20:06:19.826Z,94247.65
2023-12-14T20:08:50.458Z,94251.26
2023-12-14T20:11:20.147Z,94248.23
2023-12-14T20:13:48.499Z,94253.67
2023-12-14T20:16:16.751Z,94259.95
2023-12-14T20:18:44.950Z,94264.52
2023-12-14T20:21:13.081Z,94270.98
2023-12-14T20:23:41.865Z,94278.58
2023-12-14T20:26:12.462Z,94284.52
2023-12-14T20:28:40.474Z,94284.73
2023-12-14T20:31:09.571Z,94287.73
2023-12-14T20:33:37.715Z,94288.15
2023-12-14T20:36:06.187Z,94283.27
2023-12-14T20:38:34.315Z,94273.08
2023-12-14T20:41:02.410Z,94277.00
2023-12-14T20:43:31.586Z,94280.83
2023-12-14T20:45:59.861Z,94276.55
2023-12-14T20:48:28.353Z,94275.29
2023-12-14T20:50:56.419Z,94276.75
2023-12-14T20:53:24.683Z,94277.53
2023-12-14T20:55:53.447Z,94279.02
2023-12-14T20:58:21.543Z,94290.27
2023-12-14T21:00:49.612Z,94295.77
2023-12-14T21:03:17.739Z,94303.75
2023-12-14T21:05:48.746Z,94312.48
2023-12-14T21:08:17.914Z,94318.98
2023-12-14T21:10:46.388Z,94323.02
2023-12-14T21:13:14.755Z,94328.87
2023-12-14T21:15:42.827Z,94330.44
2023-12-14T21:18:11.080Z,94334.86
2023-12-14T21:20:39.321Z,94336.26
2023-12-14T21:23:08.737Z,94329.16
2023-12-14T21:25:41.936Z,94331.71
2023-12-14T21:28:10.084Z,94330.27
2023-12-14T21:30:38.275Z,94336.55
2023-12-14T21:33:06.423Z,94343.11
2023-12-14T21:35:34.820Z,94350.42
2023-12-14T21:38:02.946Z,94352.50
2023-12-14T21:40:31.014Z,94361.04
2023-12-14T21:42:59.035Z,94367.42
2023-12-14T21:45:27.179Z,94362.79
2023-12-14T21:47:56.278Z,94362.75
2023-12-14T21:50:24.381Z,94349.71
2023-12-14T21:52:52.573Z,94352.31
2023-12-14T21:55:20.634Z,94357.58
2023-12-14T21:57:48.741Z,94354.98
2023-12-14T22:00:17.444Z,94355.84
2023-12-14T22:02:45.911Z,94358.80
2023-12-14T22:05:14.270Z,94354.95
2023-12-14T22:07:42.698Z,94351.88
2023-12-14T22:10:16.835Z,94351.77
2023-12-14T22:12:46.118Z,94366.05
2023-12-14T22:15:15.502Z,94365.84
2023-12-14T22:17:43.917Z,94372.60
2023-12-14T22:20:12.623Z,94369.02
2023-12-14T22:22:40.840Z,94366.62
2023-12-14T22:25:09.125Z,94370.48
2023-12-14T22:27:37.403Z,94371.84
2023-12-14T22:30:08.863Z,94378.66
2023-12-14T22:32:37.185Z,94377.80
2023-12-14T22:35:05.830Z,94384.39
2023-12-14T22:37:34.077Z,94383.90
2023-12-14T22:40:03.299Z,94382.10
2023-12-14T22:42:31.322Z,94385.86
2023-12-14T22:44:59.353Z,94393.54
2023-12-14T22:47:27.671Z,94399.04
2023-12-14T22:49:56.046Z,94410.55
2023-12-14T22:52:24.268Z,94416.44
2023-12-14T22:54:52.415Z,94415.63
2023-12-14T22:57:20.495Z,94426.30
2023-12-14T22:59:48.625Z,94429.52
2023-12-14T23:02:17.021Z,94431.34
2023-12-14T23:04:45.282Z,94425.48
2023-12-14T23:07:13.288Z,94422.10
2023-12-14T23:09:42.261Z,94422.39
2023-12-14T23:12:11.608Z,94426.39
2023-12-14T23:14:39.669Z,94425.07
2023-12-14T23:17:07.815Z,94429.70
2023-12-14T23:19:36.107Z,94424.81
2023-12-14T23:22:04.278Z,94419.46
2023-12-14T23:24:32.385Z,94424.37
2023-12-14T23:27:00.533Z,94424.57
2023-12-14T23:29:28.747Z,94422.05
2023-12-14T23:31:56.958Z,94417.50
2023-12-14T23:34:25.107Z,94417.40
2023-12-14T23:36:53.495Z,94412.85
2023-12-14T23:39:22.212Z,94417.45
2023-12-14T23:41:50.350Z,94421.71
2023-12-14T23:44:18.497Z,94422.66
2023-12-14T23:46:46.881Z,94424.81
2023-12-14T23:49:15.064Z,94433.56
2023-12-14T23:51:43.173Z,94438.48
2023-12-14T23:54:11.265Z,94445.10
2023-12-14T23:56:40.410Z,94445.73
2023-12-14T23:59:08.453Z,94449.88
